createdAt,value
2022-08-05T00:00:26.859Z,13.30
2022-08-05T00:03:33.567Z,5.93
2022-08-05T00:06:39.383Z,6.68
2022-08-05T00:09:44.408Z,10.27
2022-08-05T00:12:56.571Z,8.20
2022-08-05T00:16:05.279Z,7.45
2022-08-05T00:19:13.562Z,4.10
2022-08-05T00:22:18.514Z,9.10
2022-08-05T00:25:25.080Z,13.07
2022-08-05T00:28:30.071Z,7.95
2022-08-05T00:31:53.571Z,8.63
2022-08-05T00:35:06.783Z,5.88
2022-08-05T00:38:12.814Z,8.88
2022-08-05T00:41:51.460Z,13.68
2022-08-05T00:44:56.024Z,6.95
2022-08-05T00:48:05.500Z,7.88
2022-08-05T00:51:50.902Z,9.00
2022-08-05T00:54:36.208Z,8.88
2022-08-05T00:57:58.299Z,7.18
2022-08-05T01:01:08.605Z,10.38
2022-08-05T01:04:20.243Z,7.75
2022-08-05T01:07:31.980Z,6.82
2022-08-05T01:10:52.259Z,7.75
2022-08-05T01:14:08.861Z,8.02
2022-08-05T01:17:17.341Z,7.85
2022-08-05T01:20:38.787Z,9.05
2022-08-05T01:24:13.127Z,6.32
2022-08-05T01:27:35.246Z,12.02
2022-08-05T01:31:03.885Z,10.00
2022-08-05T01:34:14.441Z,9.70
2022-08-05T01:37:24.561Z,8.13
2022-08-05T01:40:32.890Z,7.63
2022-08-05T01:43:39.973Z,11.20
2022-08-05T01:46:49.032Z,6.78
2022-08-05T01:50:01.373Z,10.98
2022-08-05T01:53:10.310Z,18.67
2022-08-05T01:58:10.212Z,12.82
2022-08-05T01:59:47.004Z,7.43
2022-08-05T02:02:58.911Z,12.38
2022-08-05T02:06:33.502Z,12.65
2022-08-05T02:09:31.917Z,10.35
2022-08-05T02:12:45.837Z,8.43
2022-08-05T02:16:03.315Z,8.57
2022-08-05T02:19:16.010Z,9.65
2022-08-05T02:22:26.900Z,11.75
2022-08-05T02:25:49.279Z,8.82
2022-08-05T02:28:58.225Z,9.05
2022-08-05T02:32:04.576Z,11.30
2022-08-05T02:35:19.196Z,12.82
2022-08-05T02:38:35.344Z,10.55
2022-08-05T02:41:58.099Z,14.82
2022-08-05T02:45:07.456Z,14.90
2022-08-05T02:48:13.858Z,10.82
2022-08-05T02:51:28.275Z,8.23
2022-08-05T02:54:52.165Z,13.23
2022-08-05T02:58:19.949Z,9.27
2022-08-05T03:01:27.855Z,12.20
2022-08-05T03:04:33.321Z,14.85
2022-08-05T03:08:06.848Z,10.55
2022-08-05T03:11:56.985Z,9.15
2022-08-05T03:14:32.537Z,7.85
2022-08-05T03:17:41.545Z,14.05
2022-08-05T03:20:48.945Z,11.95
2022-08-05T03:23:58.175Z,11.00
2022-08-05T03:27:03.502Z,15.65
2022-08-05T03:30:13.969Z,17.45
2022-08-05T03:33:20.493Z,13.82
2022-08-05T03:36:30.171Z,9.65
2022-08-05T03:39:58.583Z,13.07
2022-08-05T03:43:58.760Z,14.50
2022-08-05T03:46:30.047Z,10.27
2022-08-05T03:49:51.585Z,16.50
2022-08-05T03:55:51.580Z,10.90
2022-08-05T03:56:42.536Z,9.20
2022-08-05T03:59:54.715Z,11.93
2022-08-05T04:03:04.285Z,12.05
2022-08-05T04:06:10.546Z,12.20
2022-08-05T04:09:15.803Z,10.57
2022-08-05T04:15:39.614Z,12.38
2022-08-05T04:19:10.520Z,12.85
2022-08-05T04:22:20.563Z,12.15
2022-08-05T04:25:57.057Z,11.55
2022-08-05T04:28:53.945Z,16.40
2022-08-05T04:31:58.930Z,14.00
2022-08-05T04:35:05.861Z,14.38
2022-08-05T04:38:11.114Z,12.65
2022-08-05T04:41:20.587Z,15.27
2022-08-05T04:44:41.787Z,13.07
2022-08-05T04:47:47.263Z,14.80
2022-08-05T04:51:03.531Z,13.57
2022-08-05T04:54:16.855Z,16.55
2022-08-05T04:57:22.923Z,12.65
2022-08-05T05:00:37.054Z,23.63
2022-08-05T05:03:42.830Z,11.98
2022-08-05T05:06:51.825Z,14.60
2022-08-05T05:09:57.122Z,14.18
2022-08-05T05:13:03.965Z,14.43
2022-08-05T05:16:12.380Z,18.25
2022-08-05T05:19:23.690Z,17.10
2022-08-05T05:22:32.598Z,16.65
2022-08-05T05:25:40.551Z,14.25
2022-08-05T05:28:46.339Z,13.23
2022-08-05T05:31:54.014Z,16.10
2022-08-05T05:34:59.423Z,15.63
2022-08-05T05:38:08.899Z,12.90
2022-08-05T05:41:16.424Z,18.35
2022-08-05T05:44:36.923Z,14.30
2022-08-05T05:48:06.949Z,14.40
2022-08-05T05:51:15.836Z,14.25
2022-08-05T05:54:21.292Z,14.77
2022-08-05T05:57:26.440Z,16.05
2022-08-05T06:00:48.102Z,12.85
2022-08-05T06:04:01.755Z,18.58
2022-08-05T06:07:08.651Z,17.27
2022-08-05T06:10:16.052Z,13.52
2022-08-05T06:13:23.619Z,11.88
2022-08-05T06:16:32.763Z,14.43
2022-08-05T06:19:45.399Z,21.90
2022-08-05T06:23:04.022Z,16.80
2022-08-05T06:26:20.761Z,16.73
2022-08-05T06:29:48.942Z,17.08
2022-08-05T06:32:52.088Z,13.80
2022-08-05T06:36:07.959Z,11.82
2022-08-05T06:39:15.011Z,19.67
2022-08-05T06:42:20.043Z,14.25
2022-08-05T06:46:03.008Z,19.02
2022-08-05T06:48:56.470Z,15.48
2022-08-05T06:52:07.394Z,18.38
2022-08-05T06:55:12.691Z,12.40
2022-08-05T06:58:34.959Z,20.52
2022-08-05T07:01:42.560Z,15.10
2022-08-05T07:04:47.549Z,20.88
2022-08-05T07:07:55.450Z,19.08
2022-08-05T07:11:00.446Z,17.98
2022-08-05T07:14:20.460Z,13.32
2022-08-05T07:18:00.620Z,19.25
2022-08-05T07:21:04.683Z,13.27
2022-08-05T07:24:13.476Z,14.43
2022-08-05T07:27:18.539Z,10.82
2022-08-05T07:30:27.293Z,12.77
2022-08-05T07:33:37.409Z,14.60
2022-08-05T07:36:47.058Z,10.82
2022-08-05T07:40:04.745Z,12.43
2022-08-05T07:43:26.506Z,10.38
2022-08-05T07:46:34.568Z,16.58
2022-08-05T07:49:54.434Z,7.43
2022-08-05T07:52:59.829Z,14.02
2022-08-05T07:56:38.965Z,10.68
2022-08-05T07:59:40.995Z,20.42
2022-08-05T08:03:15.136Z,12.82
2022-08-05T08:06:11.398Z,13.50
2022-08-05T08:09:18.654Z,11.05
2022-08-05T08:12:48.419Z,10.20
2022-08-05T08:16:34.455Z,13.27
2022-08-05T08:20:10.365Z,14.32
2022-08-05T08:22:52.896Z,10.63
2022-08-05T08:26:00.260Z,11.93
2022-08-05T08:29:45.327Z,10.95
2022-08-05T08:32:41.745Z,10.07
2022-08-05T08:35:53.112Z,9.95
2022-08-05T08:39:15.598Z,11.90
2022-08-05T08:42:34.181Z,10.00
2022-08-05T08:45:47.538Z,16.67
2022-08-05T08:49:17.338Z,6.93
2022-08-05T08:52:28.065Z,9.52
2022-08-05T08:56:03.141Z,11.50
2022-08-05T08:59:01.576Z,12.20
2022-08-05T09:02:20.333Z,10.13
2022-08-05T09:05:38.395Z,11.50
2022-08-05T09:08:53.453Z,11.82
2022-08-05T09:12:04.642Z,10.10
2022-08-05T09:15:21.014Z,7.28
2022-08-05T09:18:31.485Z,8.60
2022-08-05T09:22:30.837Z,6.43
2022-08-05T09:25:02.189Z,5.45
2022-08-05T09:28:31.857Z,7.68
2022-08-05T09:32:38.999Z,6.28
2022-08-05T09:35:26.673Z,5.53
2022-08-05T09:38:33.242Z,9.70
2022-08-05T09:41:59.815Z,5.68
2022-08-05T09:45:17.754Z,4.90
2022-08-05T09:48:38.450Z,4.15
2022-08-05T09:51:49.427Z,4.07
2022-08-05T09:55:00.234Z,6.20
2022-08-05T09:58:15.623Z,5.43
2022-08-05T10:01:32.530Z,2.42
2022-08-05T10:04:45.246Z,5.35
2022-08-05T10:08:10.639Z,2.30
2022-08-05T10:11:21.465Z,4.13
2022-08-05T10:14:30.291Z,5.97
2022-08-05T10:17:40.020Z,3.00
2022-08-05T10:20:50.120Z,4.53
2022-08-05T10:24:00.469Z,2.83
2022-08-05T10:27:07.605Z,2.70
2022-08-05T10:32:46.881Z,5.93
2022-08-05T10:33:38.850Z,6.18
2022-08-05T10:36:45.443Z,1.00
2022-08-05T10:39:59.483Z,1.92
2022-08-05T10:43:35.538Z,4.65
2022-08-05T10:46:51.004Z,6.60
2022-08-05T10:50:31.588Z,2.85
2022-08-05T10:53:45.433Z,2.58
2022-08-05T10:56:56.037Z,0.75
2022-08-05T11:00:20.253Z,2.30
2022-08-05T11:03:27.151Z,5.70
2022-08-05T11:06:32.792Z,3.53
2022-08-05T11:09:47.162Z,2.40
2022-08-05T11:12:55.401Z,1.63
2022-08-05T11:16:33.914Z,0.63
2022-08-05T11:20:11.120Z,2.92
2022-08-05T11:24:03.996Z,1.00
2022-08-05T11:27:45.825Z,3.78
2022-08-05T11:31:56.338Z,1.27
2022-08-05T11:38:30.851Z,2.70
2022-08-05T11:42:01.462Z,3.25
2022-08-05T11:45:14.283Z,4.63
2022-08-05T11:48:34.129Z,4.88
2022-08-05T11:51:49.594Z,1.58
2022-08-05T11:54:56.948Z,1.77
2022-08-05T11:58:09.174Z,1.42
2022-08-05T12:01:19.302Z,1.58
2022-08-05T12:04:27.456Z,1.77
2022-08-05T12:08:10.444Z,1.25
2022-08-05T12:11:10.873Z,1.42
2022-08-05T12:14:39.399Z,1.27
2022-08-05T12:18:04.244Z,2.60
2022-08-05T12:21:24.339Z,4.03
2022-08-05T12:24:36.350Z,0.60
2022-08-05T12:27:53.183Z,1.35
2022-08-05T12:31:03.994Z,7.28
2022-08-05T12:34:20.511Z,1.27
2022-08-05T12:37:30.043Z,1.52
2022-08-05T12:40:37.568Z,0.73
2022-08-05T12:43:57.921Z,1.60
2022-08-05T12:47:05.810Z,2.33
2022-08-05T12:50:19.930Z,4.18
2022-08-05T12:53:33.038Z,1.08
2022-08-05T13:01:56.663Z,1.30
2022-08-05T13:03:24.546Z,1.45
2022-08-05T13:06:51.476Z,2.08
2022-08-05T13:10:19.436Z,0.80
2022-08-05T13:14:05.834Z,1.63
2022-08-05T13:16:57.847Z,2.95
2022-08-05T13:20:06.977Z,1.92
2022-08-05T13:23:14.790Z,2.35
2022-08-05T13:26:30.325Z,1.52
2022-08-05T13:29:38.093Z,5.05
2022-08-05T13:32:50.591Z,2.08
2022-08-05T13:36:01.907Z,4.85
2022-08-05T13:40:12.743Z,3.08
2022-08-05T13:42:46.952Z,1.30
2022-08-05T13:45:53.280Z,1.30
2022-08-05T13:49:01.288Z,3.33
2022-08-05T13:52:15.275Z,1.75
2022-08-05T13:55:40.864Z,5.13
2022-08-05T13:59:06.306Z,0.98
2022-08-05T14:02:31.444Z,1.13
2022-08-05T14:06:04.835Z,1.83
2022-08-05T14:09:08.584Z,0.77
2022-08-05T14:12:17.653Z,2.30
2022-08-05T14:16:09.254Z,5.03
2022-08-05T14:19:04.500Z,1.15
2022-08-05T14:22:11.787Z,0.73
2022-08-05T14:25:19.236Z,2.97
2022-08-05T14:28:32.077Z,0.85
2022-08-05T14:32:03.617Z,2.10
2022-08-05T14:35:20.735Z,0.63
2022-08-05T14:38:35.743Z,0.57
2022-08-05T14:42:19.447Z,0.75
2022-08-05T14:45:23.510Z,7.55
2022-08-05T14:48:42.859Z,1.77
2022-08-05T14:51:50.747Z,3.70
2022-08-05T14:54:56.138Z,1.33
2022-08-05T14:58:14.620Z,2.28
2022-08-05T15:01:47.840Z,0.63
2022-08-05T15:04:50.232Z,1.77
2022-08-05T15:08:09.169Z,1.52
2022-08-05T15:11:24.769Z,0.73
2022-08-05T15:14:52.279Z,0.80
2022-08-05T15:18:09.876Z,1.10
2022-08-05T15:21:22.397Z,3.27
2022-08-05T15:24:29.420Z,1.50
2022-08-05T15:27:36.026Z,1.02
2022-08-05T15:30:41.378Z,4.47
2022-08-05T15:34:04.760Z,2.25
2022-08-05T15:38:33.731Z,1.20
2022-08-05T15:41:21.347Z,1.15
2022-08-05T15:44:17.600Z,1.77
2022-08-05T15:47:25.662Z,4.40
2022-08-05T15:50:33.168Z,0.60
2022-08-05T15:53:50.897Z,1.70
2022-08-05T15:56:58.306Z,2.78
2022-08-05T16:00:26.073Z,1.13
2022-08-05T16:03:41.209Z,5.72
2022-08-05T16:06:46.377Z,2.15
2022-08-05T16:10:01.727Z,1.23
2022-08-05T16:13:23.311Z,3.30
2022-08-05T16:16:32.347Z,3.65
2022-08-05T16:20:03.472Z,3.60
2022-08-05T16:23:08.666Z,2.03
2022-08-05T16:26:26.619Z,2.70
2022-08-05T16:29:37.283Z,3.80
2022-08-05T16:32:46.360Z,3.25
2022-08-05T16:35:53.056Z,1.98
2022-08-05T16:38:59.261Z,1.45
2022-08-05T16:42:27.398Z,4.97
2022-08-05T16:46:06.635Z,1.63
2022-08-05T16:49:08.417Z,4.53
2022-08-05T16:52:15.041Z,3.55
2022-08-05T16:55:22.927Z,3.63
2022-08-05T16:58:32.366Z,3.72
2022-08-05T17:01:53.937Z,4.95
2022-08-05T17:05:04.273Z,1.48
2022-08-05T17:08:09.410Z,3.03
2022-08-05T17:11:23.441Z,1.05
2022-08-05T17:14:37.447Z,0.70
2022-08-05T17:17:44.091Z,1.63
2022-08-05T17:20:49.329Z,1.98
2022-08-05T17:24:05.254Z,1.77
2022-08-05T17:27:19.421Z,5.28
2022-08-05T17:30:28.163Z,1.30
2022-08-05T17:33:38.920Z,0.93
2022-08-05T17:36:53.412Z,2.88
2022-08-05T17:40:04.575Z,1.13
2022-08-05T17:43:15.463Z,2.38
2022-08-05T17:46:26.700Z,2.70
2022-08-05T17:49:51.651Z,3.30
2022-08-05T17:53:01.641Z,2.10
2022-08-05T17:56:07.254Z,1.23
2022-08-05T17:59:12.719Z,2.45
2022-08-05T18:02:20.291Z,2.15
2022-08-05T18:05:35.679Z,1.17
2022-08-05T18:08:44.555Z,1.65
2022-08-05T18:11:52.753Z,3.90
2022-08-05T18:14:57.978Z,2.30
2022-08-05T18:18:10.879Z,2.30
2022-08-05T18:21:19.992Z,1.52
2022-08-05T18:24:27.781Z,4.53
2022-08-05T18:27:33.133Z,3.33
2022-08-05T18:30:39.052Z,2.35
2022-08-05T18:33:51.679Z,0.55
2022-08-05T18:36:56.779Z,1.73
2022-08-05T18:41:49.974Z,2.40
2022-08-05T18:43:26.874Z,1.05
2022-08-05T18:46:36.797Z,3.90
2022-08-05T18:49:59.639Z,3.92
2022-08-05T18:53:06.492Z,1.50
2022-08-05T18:56:25.237Z,3.08
2022-08-05T18:59:45.703Z,5.53
2022-08-05T19:02:56.355Z,1.58
2022-08-05T19:06:12.843Z,7.43
2022-08-05T19:09:27.334Z,1.95
2022-08-05T19:12:46.057Z,5.65
2022-08-05T19:15:57.468Z,4.50
2022-08-05T19:19:05.758Z,3.50
2022-08-05T19:22:17.340Z,4.00
2022-08-05T19:25:30.702Z,3.40
2022-08-05T19:28:44.595Z,2.63
2022-08-05T19:31:51.498Z,4.25
2022-08-05T19:34:56.829Z,4.60
2022-08-05T19:38:08.236Z,4.20
2022-08-05T19:41:14.914Z,7.95
2022-08-05T19:44:20.321Z,4.07
2022-08-05T19:47:25.341Z,4.40
2022-08-05T19:50:35.057Z,3.88
2022-08-05T19:54:04.105Z,4.32
2022-08-05T19:57:10.113Z,4.30
2022-08-05T20:00:15.974Z,1.85
2022-08-05T20:03:26.114Z,2.58
2022-08-05T20:06:36.053Z,4.63
2022-08-05T20:09:56.558Z,5.45
2022-08-05T20:13:02.864Z,3.95
2022-08-05T20:16:08.608Z,2.25
2022-08-05T20:19:13.985Z,3.53
2022-08-05T20:22:23.104Z,5.00
2022-08-05T20:25:39.938Z,5.55
2022-08-05T20:28:46.155Z,2.10
2022-08-05T20:31:57.700Z,6.15
2022-08-05T20:35:03.271Z,2.70
2022-08-05T20:38:08.571Z,7.18
2022-08-05T20:41:24.243Z,2.75
2022-08-05T20:44:33.227Z,3.00
2022-08-05T20:47:42.939Z,8.60
2022-08-05T20:50:48.206Z,1.35
2022-08-05T20:53:56.600Z,3.03
2022-08-05T20:57:04.896Z,3.08
2022-08-05T21:00:41.640Z,7.22
2022-08-05T21:03:47.966Z,4.95
2022-08-05T21:06:53.695Z,3.28
2022-08-05T21:09:58.796Z,6.22
2022-08-05T21:13:10.319Z,6.13
2022-08-05T21:16:19.780Z,5.30
2022-08-05T21:19:24.976Z,4.45
2022-08-05T21:22:33.550Z,9.48
2022-08-05T21:25:44.465Z,1.08
2022-08-05T21:28:52.768Z,5.55
2022-08-05T21:32:05.953Z,8.80
2022-08-05T21:35:18.162Z,4.82
2022-08-05T21:38:38.729Z,4.27
2022-08-05T21:41:52.475Z,2.25
2022-08-05T21:45:00.692Z,2.90
2022-08-05T21:48:06.349Z,4.40
2022-08-05T21:52:16.677Z,2.67
2022-08-05T21:54:38.412Z,3.25
2022-08-05T21:57:43.507Z,3.10
2022-08-05T22:00:54.172Z,6.05
2022-08-05T22:03:59.247Z,5.03
2022-08-05T22:07:05.217Z,5.70
2022-08-05T22:10:11.935Z,4.18
2022-08-05T22:14:05.749Z,2.47
2022-08-05T22:16:50.990Z,1.42
2022-08-05T22:20:03.453Z,4.95
2022-08-05T22:24:00.976Z,6.68
2022-08-05T22:27:21.183Z,5.03
2022-08-05T22:30:35.246Z,3.63
2022-08-05T22:33:56.571Z,5.15
2022-08-05T22:37:04.727Z,2.95
2022-08-05T22:40:12.177Z,4.78
2022-08-05T22:43:36.920Z,2.78
2022-08-05T22:46:42.953Z,5.05
2022-08-05T22:50:19.176Z,3.75
2022-08-05T22:53:19.181Z,8.05
2022-08-05T22:56:30.239Z,7.13
2022-08-05T22:59:46.466Z,6.13
2022-08-05T23:02:56.179Z,2.97
2022-08-05T23:06:05.761Z,2.40
2022-08-05T23:09:14.175Z,4.55
2022-08-05T23:12:33.424Z,3.05
2022-08-05T23:15:41.847Z,1.42
2022-08-05T23:18:47.976Z,2.03
2022-08-05T23:21:57.009Z,5.43
2022-08-05T23:25:03.544Z,3.35
2022-08-05T23:28:09.974Z,3.25
2022-08-05T23:31:17.355Z,2.20
2022-08-05T23:34:24.487Z,2.83
2022-08-05T23:37:34.172Z,4.45
2022-08-05T23:40:42.256Z,2.38
2022-08-05T23:44:06.396Z,2.75
2022-08-05T23:47:15.799Z,4.97
2022-08-05T23:50:20.962Z,2.78
2022-08-05T23:53:46.611Z,9.15
2022-08-05T23:56:52.101Z,6.00
